sensor_id;sensor_type;location;lat;lon;timestamp;temperature;humidity
21830;DHT22;11077;50.264;6.798;2022-12-08T00:00:17;1.60;99.90
21830;DHT22;11077;50.264;6.798;2022-12-08T00:02:44;1.60;99.90
21830;DHT22;11077;50.264;6.798;2022-12-08T00:05:11;1.60;99.90
21830;DHT22;11077;50.264;6.798;2022-12-08T00:07:56;1.60;99.90
21830;DHT22;11077;50.264;6.798;2022-12-08T00:10:42;1.60;99.90
21830;DHT22;11077;50.264;6.798;2022-12-08T00:13:12;1.60;99.90
21830;DHT22;11077;50.264;6.798;2022-12-08T00:15:39;1.60;99.90
21830;DHT22;11077;50.264;6.798;2022-12-08T00:18:06;1.60;99.90
21830;DHT22;11077;50.264;6.798;2022-12-08T00:20:33;1.60;99.90
21830;DHT22;11077;50.264;6.798;2022-12-08T00:23:01;1.60;99.90
21830;DHT22;11077;50.264;6.798;2022-12-08T00:25:29;1.60;99.90
21830;DHT22;11077;50.264;6.798;2022-12-08T00:27:57;1.50;99.90
21830;DHT22;11077;50.264;6.798;2022-12-08T00:30:25;1.60;99.90
21830;DHT22;11077;50.264;6.798;2022-12-08T00:32:52;1.60;99.90
21830;DHT22;11077;50.264;6.798;2022-12-08T00:35:20;1.50;99.90
21830;DHT22;11077;50.264;6.798;2022-12-08T00:37:47;1.60;99.90
21830;DHT22;11077;50.264;6.798;2022-12-08T00:40:14;1.50;99.90
21830;DHT22;11077;50.264;6.798;2022-12-08T00:42:41;1.50;99.90
21830;DHT22;11077;50.264;6.798;2022-12-08T00:45:10;1.50;99.90
21830;DHT22;11077;50.264;6.798;2022-12-08T00:47:38;1.50;99.90
21830;DHT22;11077;50.264;6.798;2022-12-08T00:50:06;1.60;99.90
21830;DHT22;11077;50.264;6.798;2022-12-08T00:52:34;1.60;99.90
21830;DHT22;11077;50.264;6.798;2022-12-08T00:55:01;1.60;99.90
21830;DHT22;11077;50.264;6.798;2022-12-08T00:57:28;1.50;99.90
21830;DHT22;11077;50.264;6.798;2022-12-08T00:59:55;1.60;99.90
21830;DHT22;11077;50.264;6.798;2022-12-08T01:02:23;1.50;99.90
21830;DHT22;11077;50.264;6.798;2022-12-08T01:04:51;1.60;99.90
21830;DHT22;11077;50.264;6.798;2022-12-08T01:07:19;1.50;99.90
21830;DHT22;11077;50.264;6.798;2022-12-08T01:09:46;1.60;99.90
21830;DHT22;11077;50.264;6.798;2022-12-08T01:12:13;1.50;99.90
21830;DHT22;11077;50.264;6.798;2022-12-08T01:14:40;1.60;99.90
21830;DHT22;11077;50.264;6.798;2022-12-08T01:17:07;1.60;99.90
21830;DHT22;11077;50.264;6.798;2022-12-08T01:19:34;1.60;99.90
21830;DHT22;11077;50.264;6.798;2022-12-08T01:22:04;1.60;99.90
21830;DHT22;11077;50.264;6.798;2022-12-08T01:24:31;1.60;99.90
21830;DHT22;11077;50.264;6.798;2022-12-08T01:26:58;1.60;99.90
21830;DHT22;11077;50.264;6.798;2022-12-08T01:29:26;1.60;99.90
21830;DHT22;11077;50.264;6.798;2022-12-08T01:31:53;1.60;99.90
21830;DHT22;11077;50.264;6.798;2022-12-08T01:34:20;1.60;99.90
21830;DHT22;11077;50.264;6.798;2022-12-08T01:36:47;1.60;99.90
21830;DHT22;11077;50.264;6.798;2022-12-08T01:39:17;1.60;99.90
21830;DHT22;11077;50.264;6.798;2022-12-08T01:41:46;1.60;99.90
21830;DHT22;11077;50.264;6.798;2022-12-08T01:44:52;1.60;99.90
21830;DHT22;11077;50.264;6.798;2022-12-08T01:47:21;1.60;99.90
21830;DHT22;11077;50.264;6.798;2022-12-08T01:49:48;1.60;99.90
21830;DHT22;11077;50.264;6.798;2022-12-08T01:52:20;1.70;99.90
21830;DHT22;11077;50.264;6.798;2022-12-08T01:54:53;1.70;99.90
21830;DHT22;11077;50.264;6.798;2022-12-08T01:57:24;1.70;99.90
21830;DHT22;11077;50.264;6.798;2022-12-08T01:59:55;1.70;99.90
21830;DHT22;11077;50.264;6.798;2022-12-08T02:02:30;1.70;99.90
21830;DHT22;11077;50.264;6.798;2022-12-08T02:04:59;1.70;99.90
21830;DHT22;11077;50.264;6.798;2022-12-08T02:07:26;1.60;99.90
21830;DHT22;11077;50.264;6.798;2022-12-08T02:09:55;1.60;99.90
21830;DHT22;11077;50.264;6.798;2022-12-08T02:12:23;1.60;99.90
21830;DHT22;11077;50.264;6.798;2022-12-08T02:14:50;1.60;99.90
21830;DHT22;11077;50.264;6.798;2022-12-08T02:17:39;1.60;99.90
21830;DHT22;11077;50.264;6.798;2022-12-08T02:20:35;1.60;99.90
21830;DHT22;11077;50.264;6.798;2022-12-08T02:23:44;1.60;99.90
21830;DHT22;11077;50.264;6.798;2022-12-08T02:29:39;1.60;99.90
21830;DHT22;11077;50.264;6.798;2022-12-08T02:32:24;1.50;99.90
21830;DHT22;11077;50.264;6.798;2022-12-08T02:35:00;1.60;99.90
21830;DHT22;11077;50.264;6.798;2022-12-08T02:37:31;1.60;99.90
21830;DHT22;11077;50.264;6.798;2022-12-08T02:40:04;1.50;99.90
21830;DHT22;11077;50.264;6.798;2022-12-08T02:42:37;1.50;99.90
21830;DHT22;11077;50.264;6.798;2022-12-08T02:45:10;1.50;99.90
21830;DHT22;11077;50.264;6.798;2022-12-08T02:47:40;1.50;99.90
21830;DHT22;11077;50.264;6.798;2022-12-08T02:50:09;1.50;99.90
21830;DHT22;11077;50.264;6.798;2022-12-08T02:52:39;1.40;99.90
21830;DHT22;11077;50.264;6.798;2022-12-08T02:55:11;1.50;99.90
21830;DHT22;11077;50.264;6.798;2022-12-08T02:57:50;1.40;99.90
21830;DHT22;11077;50.264;6.798;2022-12-08T03:00:20;1.40;99.90
21830;DHT22;11077;50.264;6.798;2022-12-08T03:02:59;1.40;99.90
21830;DHT22;11077;50.264;6.798;2022-12-08T03:05:42;1.40;99.90
21830;DHT22;11077;50.264;6.798;2022-12-08T03:08:15;1.40;99.90
21830;DHT22;11077;50.264;6.798;2022-12-08T03:10:51;1.40;99.90
21830;DHT22;11077;50.264;6.798;2022-12-08T03:13:24;1.40;99.90
21830;DHT22;11077;50.264;6.798;2022-12-08T03:15:54;1.40;99.90
21830;DHT22;11077;50.264;6.798;2022-12-08T03:18:27;1.40;99.90
21830;DHT22;11077;50.264;6.798;2022-12-08T03:20:56;1.40;99.90
21830;DHT22;11077;50.264;6.798;2022-12-08T03:23:25;1.40;99.90
21830;DHT22;11077;50.264;6.798;2022-12-08T03:25:58;1.40;99.90
21830;DHT22;11077;50.264;6.798;2022-12-08T03:28:27;1.40;99.90
21830;DHT22;11077;50.264;6.798;2022-12-08T03:30:58;1.40;99.90
21830;DHT22;11077;50.264;6.798;2022-12-08T03:33:30;1.50;99.90
21830;DHT22;11077;50.264;6.798;2022-12-08T03:36:01;1.40;99.90
21830;DHT22;11077;50.264;6.798;2022-12-08T03:38:37;1.40;99.90
21830;DHT22;11077;50.264;6.798;2022-12-08T03:41:04;1.30;99.90
21830;DHT22;11077;50.264;6.798;2022-12-08T03:43:44;1.40;99.90
21830;DHT22;11077;50.264;6.798;2022-12-08T03:46:12;1.30;99.90
21830;DHT22;11077;50.264;6.798;2022-12-08T03:48:39;1.30;99.90
21830;DHT22;11077;50.264;6.798;2022-12-08T03:51:08;1.30;99.90
21830;DHT22;11077;50.264;6.798;2022-12-08T03:53:35;1.40;99.90
21830;DHT22;11077;50.264;6.798;2022-12-08T03:56:04;1.40;99.90
21830;DHT22;11077;50.264;6.798;2022-12-08T03:58:31;1.40;99.90
21830;DHT22;11077;50.264;6.798;2022-12-08T04:00:58;1.40;99.90
21830;DHT22;11077;50.264;6.798;2022-12-08T04:03:25;1.40;99.90
21830;DHT22;11077;50.264;6.798;2022-12-08T04:05:53;1.40;99.90
21830;DHT22;11077;50.264;6.798;2022-12-08T04:08:21;1.40;99.90
21830;DHT22;11077;50.264;6.798;2022-12-08T04:10:48;1.40;99.90
21830;DHT22;11077;50.264;6.798;2022-12-08T04:13:15;1.40;99.90
21830;DHT22;11077;50.264;6.798;2022-12-08T04:15:44;1.30;99.90
21830;DHT22;11077;50.264;6.798;2022-12-08T04:18:11;1.40;99.90
21830;DHT22;11077;50.264;6.798;2022-12-08T04:20:39;1.40;99.90
21830;DHT22;11077;50.264;6.798;2022-12-08T04:23:06;1.30;99.90
21830;DHT22;11077;50.264;6.798;2022-12-08T04:25:35;1.40;99.90
21830;DHT22;11077;50.264;6.798;2022-12-08T04:28:03;1.40;99.90
21830;DHT22;11077;50.264;6.798;2022-12-08T04:30:31;1.40;99.90
21830;DHT22;11077;50.264;6.798;2022-12-08T04:32:58;1.40;99.90
21830;DHT22;11077;50.264;6.798;2022-12-08T04:35:25;1.40;99.90
21830;DHT22;11077;50.264;6.798;2022-12-08T04:37:52;1.40;99.90
21830;DHT22;11077;50.264;6.798;2022-12-08T04:40:19;1.40;99.90
21830;DHT22;11077;50.264;6.798;2022-12-08T04:42:48;1.50;99.90
21830;DHT22;11077;50.264;6.798;2022-12-08T04:45:15;1.40;99.90
21830;DHT22;11077;50.264;6.798;2022-12-08T04:47:43;1.40;99.90
21830;DHT22;11077;50.264;6.798;2022-12-08T04:50:10;1.40;99.90
21830;DHT22;11077;50.264;6.798;2022-12-08T04:52:38;1.40;99.90
21830;DHT22;11077;50.264;6.798;2022-12-08T04:55:05;1.40;99.90
21830;DHT22;11077;50.264;6.798;2022-12-08T04:57:32;1.30;99.90
21830;DHT22;11077;50.264;6.798;2022-12-08T05:00:01;1.30;99.90
21830;DHT22;11077;50.264;6.798;2022-12-08T05:02:29;1.40;99.90
21830;DHT22;11077;50.264;6.798;2022-12-08T05:04:57;1.40;99.90
21830;DHT22;11077;50.264;6.798;2022-12-08T05:07:24;1.30;99.90
21830;DHT22;11077;50.264;6.798;2022-12-08T05:09:51;1.30;99.90
21830;DHT22;11077;50.264;6.798;2022-12-08T05:12:19;1.30;99.90
21830;DHT22;11077;50.264;6.798;2022-12-08T05:14:46;1.40;99.90
21830;DHT22;11077;50.264;6.798;2022-12-08T05:17:14;1.30;99.90
21830;DHT22;11077;50.264;6.798;2022-12-08T05:19:43;1.40;99.90
21830;DHT22;11077;50.264;6.798;2022-12-08T05:22:11;1.40;99.90
21830;DHT22;11077;50.264;6.798;2022-12-08T05:24:38;1.40;99.90
21830;DHT22;11077;50.264;6.798;2022-12-08T05:27:05;1.40;99.90
21830;DHT22;11077;50.264;6.798;2022-12-08T05:29:33;1.40;99.90
21830;DHT22;11077;50.264;6.798;2022-12-08T05:32:00;1.40;99.90
21830;DHT22;11077;50.264;6.798;2022-12-08T05:34:28;1.40;99.90
21830;DHT22;11077;50.264;6.798;2022-12-08T05:36:56;1.40;99.90
21830;DHT22;11077;50.264;6.798;2022-12-08T05:39:23;1.40;99.90
21830;DHT22;11077;50.264;6.798;2022-12-08T05:41:51;1.30;99.90
21830;DHT22;11077;50.264;6.798;2022-12-08T05:44:18;1.30;99.90
21830;DHT22;11077;50.264;6.798;2022-12-08T05:46:45;1.30;99.90
21830;DHT22;11077;50.264;6.798;2022-12-08T05:49:12;1.30;99.90
21830;DHT22;11077;50.264;6.798;2022-12-08T05:51:41;1.30;99.90
21830;DHT22;11077;50.264;6.798;2022-12-08T05:54:08;1.30;99.90
21830;DHT22;11077;50.264;6.798;2022-12-08T05:56:35;1.30;99.90
21830;DHT22;11077;50.264;6.798;2022-12-08T05:59:04;1.30;99.90
21830;DHT22;11077;50.264;6.798;2022-12-08T06:01:31;1.30;99.90
21830;DHT22;11077;50.264;6.798;2022-12-08T06:04:00;1.30;99.90
21830;DHT22;11077;50.264;6.798;2022-12-08T06:06:28;1.30;99.90
21830;DHT22;11077;50.264;6.798;2022-12-08T06:08:57;1.30;99.90
21830;DHT22;11077;50.264;6.798;2022-12-08T06:11:26;1.30;99.90
21830;DHT22;11077;50.264;6.798;2022-12-08T06:13:54;1.30;99.90
21830;DHT22;11077;50.264;6.798;2022-12-08T06:16:22;1.30;99.90
21830;DHT22;11077;50.264;6.798;2022-12-08T06:18:49;1.30;99.90
21830;DHT22;11077;50.264;6.798;2022-12-08T06:21:17;1.30;99.90
21830;DHT22;11077;50.264;6.798;2022-12-08T06:23:47;1.30;99.90
21830;DHT22;11077;50.264;6.798;2022-12-08T06:26:17;1.40;99.90
21830;DHT22;11077;50.264;6.798;2022-12-08T06:28:44;1.30;99.90
21830;DHT22;11077;50.264;6.798;2022-12-08T06:31:14;1.40;99.90
21830;DHT22;11077;50.264;6.798;2022-12-08T06:33:42;1.40;99.90
21830;DHT22;11077;50.264;6.798;2022-12-08T06:36:11;1.30;99.90
21830;DHT22;11077;50.264;6.798;2022-12-08T06:38:39;1.30;99.90
21830;DHT22;11077;50.264;6.798;2022-12-08T06:41:06;1.30;99.90
21830;DHT22;11077;50.264;6.798;2022-12-08T06:43:35;1.30;99.90
21830;DHT22;11077;50.264;6.798;2022-12-08T06:46:04;1.30;99.90
21830;DHT22;11077;50.264;6.798;2022-12-08T06:48:33;1.30;99.90
21830;DHT22;11077;50.264;6.798;2022-12-08T06:51:05;1.30;99.90
21830;DHT22;11077;50.264;6.798;2022-12-08T06:53:33;1.30;99.90
21830;DHT22;11077;50.264;6.798;2022-12-08T06:56:00;1.30;99.90
21830;DHT22;11077;50.264;6.798;2022-12-08T06:58:27;1.30;99.90
21830;DHT22;11077;50.264;6.798;2022-12-08T07:00:56;1.30;99.90
21830;DHT22;11077;50.264;6.798;2022-12-08T07:03:23;1.30;99.90
21830;DHT22;11077;50.264;6.798;2022-12-08T07:05:54;1.20;99.90
21830;DHT22;11077;50.264;6.798;2022-12-08T07:08:22;1.20;99.90
21830;DHT22;11077;50.264;6.798;2022-12-08T07:10:49;1.20;99.90
21830;DHT22;11077;50.264;6.798;2022-12-08T07:13:16;1.30;99.90
21830;DHT22;11077;50.264;6.798;2022-12-08T07:15:43;1.20;99.90
21830;DHT22;11077;50.264;6.798;2022-12-08T07:18:12;1.20;99.90
21830;DHT22;11077;50.264;6.798;2022-12-08T07:20:39;1.20;99.90
21830;DHT22;11077;50.264;6.798;2022-12-08T07:23:06;1.20;99.90
21830;DHT22;11077;50.264;6.798;2022-12-08T07:25:33;1.20;99.90
21830;DHT22;11077;50.264;6.798;2022-12-08T07:28:06;1.20;99.90
21830;DHT22;11077;50.264;6.798;2022-12-08T07:30:33;1.10;99.90
21830;DHT22;11077;50.264;6.798;2022-12-08T07:33:01;1.20;99.90
21830;DHT22;11077;50.264;6.798;2022-12-08T07:35:30;1.10;99.90
21830;DHT22;11077;50.264;6.798;2022-12-08T07:37:58;1.10;99.90
21830;DHT22;11077;50.264;6.798;2022-12-08T07:40:25;1.10;99.90
21830;DHT22;11077;50.264;6.798;2022-12-08T07:42:52;1.10;99.90
21830;DHT22;11077;50.264;6.798;2022-12-08T07:45:19;1.10;99.90
21830;DHT22;11077;50.264;6.798;2022-12-08T07:47:47;1.10;99.90
21830;DHT22;11077;50.264;6.798;2022-12-08T07:50:14;1.10;99.90
21830;DHT22;11077;50.264;6.798;2022-12-08T07:52:43;1.10;99.90
21830;DHT22;11077;50.264;6.798;2022-12-08T07:55:10;1.20;99.90
21830;DHT22;11077;50.264;6.798;2022-12-08T07:57:37;1.20;99.90
21830;DHT22;11077;50.264;6.798;2022-12-08T08:00:06;1.10;99.90
21830;DHT22;11077;50.264;6.798;2022-12-08T08:02:37;1.10;99.90
21830;DHT22;11077;50.264;6.798;2022-12-08T08:05:05;1.10;99.90
21830;DHT22;11077;50.264;6.798;2022-12-08T08:07:33;1.10;99.90
21830;DHT22;11077;50.264;6.798;2022-12-08T08:10:03;1.10;99.90
21830;DHT22;11077;50.264;6.798;2022-12-08T08:12:31;1.10;99.90
21830;DHT22;11077;50.264;6.798;2022-12-08T08:14:58;1.10;99.90
21830;DHT22;11077;50.264;6.798;2022-12-08T08:17:26;1.10;99.90
21830;DHT22;11077;50.264;6.798;2022-12-08T08:19:53;1.20;99.90
21830;DHT22;11077;50.264;6.798;2022-12-08T08:22:21;1.10;99.90
21830;DHT22;11077;50.264;6.798;2022-12-08T08:24:48;1.10;99.90
21830;DHT22;11077;50.264;6.798;2022-12-08T08:27:16;1.20;99.90
21830;DHT22;11077;50.264;6.798;2022-12-08T08:29:44;1.10;99.90
21830;DHT22;11077;50.264;6.798;2022-12-08T08:32:11;1.20;99.90
21830;DHT22;11077;50.264;6.798;2022-12-08T08:34:38;1.10;99.90
21830;DHT22;11077;50.264;6.798;2022-12-08T08:37:05;1.20;99.90
21830;DHT22;11077;50.264;6.798;2022-12-08T08:39:33;1.20;99.90
21830;DHT22;11077;50.264;6.798;2022-12-08T08:42:00;1.20;99.90
21830;DHT22;11077;50.264;6.798;2022-12-08T08:44:29;1.20;99.90
21830;DHT22;11077;50.264;6.798;2022-12-08T08:46:56;1.20;99.90
21830;DHT22;11077;50.264;6.798;2022-12-08T08:49:23;1.10;99.90
21830;DHT22;11077;50.264;6.798;2022-12-08T08:51:51;1.20;99.90
21830;DHT22;11077;50.264;6.798;2022-12-08T08:54:18;1.20;99.90
21830;DHT22;11077;50.264;6.798;2022-12-08T08:56:45;1.20;99.90
21830;DHT22;11077;50.264;6.798;2022-12-08T08:59:13;1.20;99.90
21830;DHT22;11077;50.264;6.798;2022-12-08T09:01:41;1.20;99.90
21830;DHT22;11077;50.264;6.798;2022-12-08T09:04:09;1.20;99.90
21830;DHT22;11077;50.264;6.798;2022-12-08T09:06:36;1.20;99.90
21830;DHT22;11077;50.264;6.798;2022-12-08T09:09:04;1.10;99.90
21830;DHT22;11077;50.264;6.798;2022-12-08T09:11:31;1.20;99.90
21830;DHT22;11077;50.264;6.798;2022-12-08T09:13:58;1.20;99.90
21830;DHT22;11077;50.264;6.798;2022-12-08T09:16:26;1.20;99.90
21830;DHT22;11077;50.264;6.798;2022-12-08T09:18:55;1.20;99.90
21830;DHT22;11077;50.264;6.798;2022-12-08T09:21:25;1.10;99.90
21830;DHT22;11077;50.264;6.798;2022-12-08T09:23:54;1.10;99.90
21830;DHT22;11077;50.264;6.798;2022-12-08T09:26:22;1.10;99.90
21830;DHT22;11077;50.264;6.798;2022-12-08T09:28:50;1.10;99.90
21830;DHT22;11077;50.264;6.798;2022-12-08T09:31:18;1.10;99.90
21830;DHT22;11077;50.264;6.798;2022-12-08T09:33:46;1.20;99.90
21830;DHT22;11077;50.264;6.798;2022-12-08T09:36:16;1.10;99.90
21830;DHT22;11077;50.264;6.798;2022-12-08T09:38:43;1.10;99.90
21830;DHT22;11077;50.264;6.798;2022-12-08T09:41:14;1.10;99.90
21830;DHT22;11077;50.264;6.798;2022-12-08T09:43:54;1.10;99.90
21830;DHT22;11077;50.264;6.798;2022-12-08T09:46:25;1.10;99.90
21830;DHT22;11077;50.264;6.798;2022-12-08T09:48:58;1.10;99.90
21830;DHT22;11077;50.264;6.798;2022-12-08T09:51:32;1.10;99.90
21830;DHT22;11077;50.264;6.798;2022-12-08T09:54:04;1.20;99.90
21830;DHT22;11077;50.264;6.798;2022-12-08T09:56:35;1.20;99.90
21830;DHT22;11077;50.264;6.798;2022-12-08T09:59:19;1.20;99.90
21830;DHT22;11077;50.264;6.798;2022-12-08T10:01:48;1.20;99.90
21830;DHT22;11077;50.264;6.798;2022-12-08T10:04:22;1.30;99.90
21830;DHT22;11077;50.264;6.798;2022-12-08T10:06:58;1.30;99.90
21830;DHT22;11077;50.264;6.798;2022-12-08T10:09:36;1.30;99.90
21830;DHT22;11077;50.264;6.798;2022-12-08T10:12:12;1.30;99.90
21830;DHT22;11077;50.264;6.798;2022-12-08T10:14:44;1.30;99.90
21830;DHT22;11077;50.264;6.798;2022-12-08T10:17:16;1.30;99.90
21830;DHT22;11077;50.264;6.798;2022-12-08T10:19:47;1.30;99.90
21830;DHT22;11077;50.264;6.798;2022-12-08T10:22:19;1.30;99.90
21830;DHT22;11077;50.264;6.798;2022-12-08T10:24:53;1.30;99.90
21830;DHT22;11077;50.264;6.798;2022-12-08T10:27:24;1.30;99.90
21830;DHT22;11077;50.264;6.798;2022-12-08T10:29:51;1.30;99.90
21830;DHT22;11077;50.264;6.798;2022-12-08T10:32:21;1.30;99.90
21830;DHT22;11077;50.264;6.798;2022-12-08T10:35:07;1.40;99.90
21830;DHT22;11077;50.264;6.798;2022-12-08T10:37:37;1.30;99.90
21830;DHT22;11077;50.264;6.798;2022-12-08T10:40:09;1.40;99.90
21830;DHT22;11077;50.264;6.798;2022-12-08T10:42:39;1.40;99.90
21830;DHT22;11077;50.264;6.798;2022-12-08T10:45:21;1.50;99.90
21830;DHT22;11077;50.264;6.798;2022-12-08T10:47:56;1.40;99.90
21830;DHT22;11077;50.264;6.798;2022-12-08T10:50:31;1.50;99.90
21830;DHT22;11077;50.264;6.798;2022-12-08T10:53:02;1.50;99.90
21830;DHT22;11077;50.264;6.798;2022-12-08T10:55:40;1.50;99.90
21830;DHT22;11077;50.264;6.798;2022-12-08T10:58:30;1.50;99.90
21830;DHT22;11077;50.264;6.798;2022-12-08T11:01:04;1.40;99.90
21830;DHT22;11077;50.264;6.798;2022-12-08T11:03:34;1.40;99.90
21830;DHT22;11077;50.264;6.798;2022-12-08T11:06:11;1.50;99.90
21830;DHT22;11077;50.264;6.798;2022-12-08T11:08:48;1.40;99.90
21830;DHT22;11077;50.264;6.798;2022-12-08T11:11:16;1.40;99.90
21830;DHT22;11077;50.264;6.798;2022-12-08T11:13:44;1.30;99.90
21830;DHT22;11077;50.264;6.798;2022-12-08T11:16:15;1.40;99.90
21830;DHT22;11077;50.264;6.798;2022-12-08T11:18:45;1.40;99.90
21830;DHT22;11077;50.264;6.798;2022-12-08T11:21:15;1.30;99.90
21830;DHT22;11077;50.264;6.798;2022-12-08T11:23:50;1.30;99.90
21830;DHT22;11077;50.264;6.798;2022-12-08T11:26:22;1.40;99.90
21830;DHT22;11077;50.264;6.798;2022-12-08T11:28:53;1.40;99.90
21830;DHT22;11077;50.264;6.798;2022-12-08T11:31:26;1.40;99.90
21830;DHT22;11077;50.264;6.798;2022-12-08T11:33:55;1.40;99.90
21830;DHT22;11077;50.264;6.798;2022-12-08T11:36:25;1.40;99.90
21830;DHT22;11077;50.264;6.798;2022-12-08T11:38:56;1.50;99.90
21830;DHT22;11077;50.264;6.798;2022-12-08T11:41:27;1.50;99.90
21830;DHT22;11077;50.264;6.798;2022-12-08T11:44:02;1.50;99.90
21830;DHT22;11077;50.264;6.798;2022-12-08T11:46:34;1.60;99.90
21830;DHT22;11077;50.264;6.798;2022-12-08T11:49:04;1.60;99.90
21830;DHT22;11077;50.264;6.798;2022-12-08T11:51:37;1.50;99.90
21830;DHT22;11077;50.264;6.798;2022-12-08T11:54:16;1.60;99.90
21830;DHT22;11077;50.264;6.798;2022-12-08T11:56:46;1.60;99.90
21830;DHT22;11077;50.264;6.798;2022-12-08T11:59:20;1.60;99.90
21830;DHT22;11077;50.264;6.798;2022-12-08T12:01:48;1.60;99.90
21830;DHT22;11077;50.264;6.798;2022-12-08T12:04:21;1.70;99.90
21830;DHT22;11077;50.264;6.798;2022-12-08T12:07:08;1.60;99.90
21830;DHT22;11077;50.264;6.798;2022-12-08T12:10:02;1.60;99.90
21830;DHT22;11077;50.264;6.798;2022-12-08T12:12:42;1.60;99.90
21830;DHT22;11077;50.264;6.798;2022-12-08T12:15:45;1.60;99.90
21830;DHT22;11077;50.264;6.798;2022-12-08T12:18:21;1.60;99.90
21830;DHT22;11077;50.264;6.798;2022-12-08T12:20:52;1.60;99.90
21830;DHT22;11077;50.264;6.798;2022-12-08T12:23:25;1.60;99.90
21830;DHT22;11077;50.264;6.798;2022-12-08T12:25:58;1.60;99.90
21830;DHT22;11077;50.264;6.798;2022-12-08T12:28:28;1.60;99.90
21830;DHT22;11077;50.264;6.798;2022-12-08T12:31:00;1.70;99.90
21830;DHT22;11077;50.264;6.798;2022-12-08T12:33:30;1.70;99.90
21830;DHT22;11077;50.264;6.798;2022-12-08T12:36:01;1.70;99.90
21830;DHT22;11077;50.264;6.798;2022-12-08T12:38:32;1.70;99.90
21830;DHT22;11077;50.264;6.798;2022-12-08T12:41:23;1.70;99.90
21830;DHT22;11077;50.264;6.798;2022-12-08T12:47:07;1.70;99.90
21830;DHT22;11077;50.264;6.798;2022-12-08T12:52:46;1.60;99.90
21830;DHT22;11077;50.264;6.798;2022-12-08T12:58:32;1.60;99.90
21830;DHT22;11077;50.264;6.798;2022-12-08T13:01:35;1.60;99.90
21830;DHT22;11077;50.264;6.798;2022-12-08T13:04:06;1.60;99.90
21830;DHT22;11077;50.264;6.798;2022-12-08T13:06:36;1.60;99.90
21830;DHT22;11077;50.264;6.798;2022-12-08T13:09:05;1.60;99.90
21830;DHT22;11077;50.264;6.798;2022-12-08T13:11:46;1.60;99.90
21830;DHT22;11077;50.264;6.798;2022-12-08T13:14:30;1.60;99.90
21830;DHT22;11077;50.264;6.798;2022-12-08T13:16:59;1.60;99.90
21830;DHT22;11077;50.264;6.798;2022-12-08T13:19:30;1.60;99.90
21830;DHT22;11077;50.264;6.798;2022-12-08T13:21:59;1.60;99.90
21830;DHT22;11077;50.264;6.798;2022-12-08T13:24:29;1.60;99.90
21830;DHT22;11077;50.264;6.798;2022-12-08T13:27:31;1.60;99.90
21830;DHT22;11077;50.264;6.798;2022-12-08T13:33:20;1.60;99.90
21830;DHT22;11077;50.264;6.798;2022-12-08T13:35:59;1.60;99.90
21830;DHT22;11077;50.264;6.798;2022-12-08T13:38:31;1.50;99.90
21830;DHT22;11077;50.264;6.798;2022-12-08T13:41:03;1.60;99.90
21830;DHT22;11077;50.264;6.798;2022-12-08T13:43:36;1.60;99.90
21830;DHT22;11077;50.264;6.798;2022-12-08T13:46:07;1.50;99.90
21830;DHT22;11077;50.264;6.798;2022-12-08T13:48:44;1.50;99.90
21830;DHT22;11077;50.264;6.798;2022-12-08T13:51:16;1.40;99.90
21830;DHT22;11077;50.264;6.798;2022-12-08T13:53:48;1.40;99.90
21830;DHT22;11077;50.264;6.798;2022-12-08T13:56:20;1.40;99.90
21830;DHT22;11077;50.264;6.798;2022-12-08T13:58:47;1.40;99.90
21830;DHT22;11077;50.264;6.798;2022-12-08T14:01:17;1.40;99.90
21830;DHT22;11077;50.264;6.798;2022-12-08T14:03:51;1.40;99.90
21830;DHT22;11077;50.264;6.798;2022-12-08T14:06:23;1.40;99.90
21830;DHT22;11077;50.264;6.798;2022-12-08T14:08:53;1.40;99.90
21830;DHT22;11077;50.264;6.798;2022-12-08T14:11:25;1.40;99.90
21830;DHT22;11077;50.264;6.798;2022-12-08T14:14:02;1.30;99.90
21830;DHT22;11077;50.264;6.798;2022-12-08T14:16:35;1.30;99.90
21830;DHT22;11077;50.264;6.798;2022-12-08T14:19:15;1.30;99.90
21830;DHT22;11077;50.264;6.798;2022-12-08T14:21:56;1.30;99.90
21830;DHT22;11077;50.264;6.798;2022-12-08T14:24:25;1.30;99.90
21830;DHT22;11077;50.264;6.798;2022-12-08T14:26:54;1.30;99.90
21830;DHT22;11077;50.264;6.798;2022-12-08T14:29:37;1.30;99.90
21830;DHT22;11077;50.264;6.798;2022-12-08T14:32:17;1.30;99.90
21830;DHT22;11077;50.264;6.798;2022-12-08T14:34:51;1.30;99.90
21830;DHT22;11077;50.264;6.798;2022-12-08T14:37:19;1.20;99.90
21830;DHT22;11077;50.264;6.798;2022-12-08T14:39:48;1.20;99.90
21830;DHT22;11077;50.264;6.798;2022-12-08T14:42:21;1.20;99.90
21830;DHT22;11077;50.264;6.798;2022-12-08T14:44:56;1.20;99.90
21830;DHT22;11077;50.264;6.798;2022-12-08T14:47:28;1.20;99.90
21830;DHT22;11077;50.264;6.798;2022-12-08T14:49:57;1.20;99.90
21830;DHT22;11077;50.264;6.798;2022-12-08T14:52:24;1.20;99.90
21830;DHT22;11077;50.264;6.798;2022-12-08T14:54:53;1.20;99.90
21830;DHT22;11077;50.264;6.798;2022-12-08T14:57:21;1.10;99.90
21830;DHT22;11077;50.264;6.798;2022-12-08T14:59:49;1.10;99.90
21830;DHT22;11077;50.264;6.798;2022-12-08T15:02:29;1.10;99.90
21830;DHT22;11077;50.264;6.798;2022-12-08T15:05:02;1.10;99.90
21830;DHT22;11077;50.264;6.798;2022-12-08T15:07:35;1.00;99.90
21830;DHT22;11077;50.264;6.798;2022-12-08T15:10:28;1.00;99.90
21830;DHT22;11077;50.264;6.798;2022-12-08T15:12:59;1.10;99.90
21830;DHT22;11077;50.264;6.798;2022-12-08T15:15:28;1.00;99.90
21830;DHT22;11077;50.264;6.798;2022-12-08T15:18:05;1.10;99.90
21830;DHT22;11077;50.264;6.798;2022-12-08T15:20:42;1.10;99.90
21830;DHT22;11077;50.264;6.798;2022-12-08T15:23:22;1.10;99.90
21830;DHT22;11077;50.264;6.798;2022-12-08T15:25:51;1.10;99.90
21830;DHT22;11077;50.264;6.798;2022-12-08T15:28:20;1.10;99.90
21830;DHT22;11077;50.264;6.798;2022-12-08T15:30:48;1.10;99.90
21830;DHT22;11077;50.264;6.798;2022-12-08T15:33:15;1.10;99.90
21830;DHT22;11077;50.264;6.798;2022-12-08T15:35:44;1.10;99.90
21830;DHT22;11077;50.264;6.798;2022-12-08T15:38:18;1.10;99.90
21830;DHT22;11077;50.264;6.798;2022-12-08T15:40:46;1.00;99.90
21830;DHT22;11077;50.264;6.798;2022-12-08T15:43:13;1.00;99.90
21830;DHT22;11077;50.264;6.798;2022-12-08T15:45:40;1.00;99.90
21830;DHT22;11077;50.264;6.798;2022-12-08T15:48:15;1.00;99.90
21830;DHT22;11077;50.264;6.798;2022-12-08T15:50:44;0.90;99.90
21830;DHT22;11077;50.264;6.798;2022-12-08T15:53:12;0.90;99.90
21830;DHT22;11077;50.264;6.798;2022-12-08T15:55:39;0.90;99.90
21830;DHT22;11077;50.264;6.798;2022-12-08T15:58:21;0.90;99.90
21830;DHT22;11077;50.264;6.798;2022-12-08T16:00:50;1.00;99.90
21830;DHT22;11077;50.264;6.798;2022-12-08T16:03:20;1.00;99.90
21830;DHT22;11077;50.264;6.798;2022-12-08T16:05:49;1.00;99.90
21830;DHT22;11077;50.264;6.798;2022-12-08T16:08:17;1.00;99.90
21830;DHT22;11077;50.264;6.798;2022-12-08T16:10:45;1.00;99.90
21830;DHT22;11077;50.264;6.798;2022-12-08T16:13:14;1.00;99.90
21830;DHT22;11077;50.264;6.798;2022-12-08T16:16:00;1.00;99.90
21830;DHT22;11077;50.264;6.798;2022-12-08T16:18:30;0.90;99.90
21830;DHT22;11077;50.264;6.798;2022-12-08T16:20:59;1.00;99.90
21830;DHT22;11077;50.264;6.798;2022-12-08T16:23:26;0.90;99.90